createdAt,value
2022-11-14T11:17:55.680Z,9.50
2022-11-14T11:20:30.201Z,9.00
2022-11-14T11:23:04.884Z,8.30
2022-11-14T11:25:33.242Z,9.90
2022-11-14T11:28:08.535Z,10.03
2022-11-14T11:30:36.515Z,9.70
2022-11-14T11:33:23.096Z,9.07
2022-11-14T11:35:51.500Z,10.60
2022-11-14T11:38:19.453Z,8.80
2022-11-14T11:40:48.567Z,9.40
2022-11-14T11:43:42.858Z,12.50
2022-11-14T11:46:14.849Z,12.13
2022-11-14T11:48:44.213Z,10.83
2022-11-14T11:51:15.291Z,12.00
2022-11-14T11:53:44.511Z,10.10
2022-11-14T11:56:13.883Z,11.10
2022-11-14T11:58:44.967Z,11.43
2022-11-14T12:01:13.486Z,9.77
2022-11-14T12:03:43.353Z,8.53
2022-11-14T12:06:15.363Z,11.00
2022-11-14T12:08:48.828Z,10.37
2022-11-14T12:11:18.701Z,11.50
2022-11-14T12:14:19.285Z,11.30
2022-11-14T12:17:03.997Z,12.03
2022-11-14T12:19:39.180Z,11.77
2022-11-14T12:22:37.204Z,8.03
2022-11-14T12:25:20.166Z,8.73
2022-11-14T12:27:57.533Z,9.10
2022-11-14T12:30:25.803Z,7.93
2022-11-14T12:32:54.866Z,8.00
2022-11-14T12:35:26.394Z,8.33
2022-11-14T12:37:56.325Z,6.57
2022-11-14T12:40:30.043Z,6.53
2022-11-14T12:42:58.104Z,6.47
2022-11-14T12:45:57.440Z,8.17
2022-11-14T12:48:34.520Z,7.67
2022-11-14T12:51:04.481Z,7.63
2022-11-14T12:53:39.650Z,7.00
2022-11-14T12:56:24.883Z,6.40
2022-11-14T12:59:05.310Z,6.67
2022-11-14T13:01:42.652Z,7.40
2022-11-14T13:04:22.552Z,6.23
2022-11-14T13:06:59.442Z,6.80
2022-11-14T13:09:41.690Z,7.30
2022-11-14T13:12:48.810Z,7.40
2022-11-14T13:15:49.434Z,7.07
2022-11-14T13:18:40.466Z,7.47
2022-11-14T13:21:42.255Z,6.80
2022-11-14T13:24:15.936Z,8.30
2022-11-14T13:26:45.424Z,7.43
2022-11-14T13:29:57.800Z,9.00
2022-11-14T13:33:06.504Z,9.67
2022-11-14T13:35:50.268Z,9.90
2022-11-14T13:38:54.437Z,10.17
2022-11-14T13:41:56.998Z,8.60
2022-11-14T13:44:53.207Z,11.30
2022-11-14T13:47:30.291Z,10.53
2022-11-14T13:50:01.378Z,10.00
2022-11-14T13:52:31.685Z,10.77
2022-11-14T13:54:59.723Z,9.57
2022-11-14T13:57:35.797Z,9.30
2022-11-14T14:00:16.811Z,9.03
2022-11-14T14:03:10.764Z,11.37
2022-11-14T14:05:49.836Z,9.03
2022-11-14T14:08:24.440Z,11.03
2022-11-14T14:10:58.375Z,14.50
2022-11-14T14:13:40.524Z,11.90
2022-11-14T14:16:10.910Z,11.37
2022-11-14T14:18:46.214Z,11.83
2022-11-14T14:21:19.523Z,9.70
2022-11-14T14:23:49.614Z,10.30
2022-11-14T14:26:22.115Z,11.80
2022-11-14T14:28:56.452Z,11.07
2022-11-14T14:31:24.490Z,10.63
2022-11-14T14:33:52.837Z,11.20
2022-11-14T14:36:22.468Z,9.73
2022-11-14T14:38:50.443Z,11.30
2022-11-14T14:41:19.925Z,9.93
2022-11-14T14:43:54.568Z,11.67
2022-11-14T14:46:32.660Z,8.27
2022-11-14T14:49:01.684Z,9.13
2022-11-14T14:51:33.900Z,10.20
2022-11-14T14:54:01.888Z,10.37
2022-11-14T14:56:29.973Z,11.17
2022-11-14T14:58:59.309Z,10.50
2022-11-14T15:01:29.821Z,9.87
2022-11-14T15:03:58.759Z,10.60
2022-11-14T15:06:31.179Z,10.53
2022-11-14T15:08:59.251Z,10.20
2022-11-14T15:11:32.280Z,13.03
2022-11-14T15:14:02.121Z,12.67
2022-11-14T15:16:30.209Z,14.33
2022-11-14T15:18:58.471Z,13.20
2022-11-14T15:21:30.892Z,10.63
2022-11-14T16:36:14.394Z,30.20
2022-11-14T16:38:42.317Z,36.73
2022-11-14T16:41:10.423Z,21.40
2022-11-14T16:43:38.360Z,18.30
2022-11-14T16:46:06.625Z,19.53
2022-11-14T16:48:34.635Z,17.63
2022-11-14T16:51:14.964Z,36.60
2022-11-14T16:53:55.970Z,20.10
2022-11-14T16:56:23.963Z,22.00
2022-11-14T16:58:55.397Z,19.10
2022-11-14T17:01:23.343Z,20.30
2022-11-14T17:03:51.349Z,23.40
2022-11-14T17:06:19.262Z,42.60
2022-11-14T17:08:47.199Z,22.97
2022-11-14T17:11:16.564Z,21.13
2022-11-14T17:13:44.491Z,18.80
2022-11-14T17:16:12.448Z,22.00
2022-11-14T17:18:40.669Z,42.90
2022-11-14T17:21:08.939Z,41.30
2022-11-14T17:23:36.885Z,55.10
2022-11-14T17:26:05.115Z,44.73
2022-11-14T17:28:34.591Z,30.00
2022-11-14T17:31:07.361Z,28.70
2022-11-14T17:33:35.333Z,24.33
2022-11-14T17:36:07.183Z,60.50
2022-11-14T17:38:35.404Z,35.17
2022-11-14T17:41:05.757Z,43.10
2022-11-14T17:43:39.143Z,45.33
2022-11-14T17:46:15.194Z,20.80
2022-11-14T17:48:43.776Z,16.83
2022-11-14T17:51:12.682Z,17.00
2022-11-14T17:53:40.612Z,19.33
2022-11-14T17:56:09.009Z,18.00
2022-11-14T17:58:38.282Z,15.30
2022-11-14T18:01:10.840Z,15.27
2022-11-14T18:03:38.861Z,14.00
2022-11-14T18:06:08.535Z,15.80
2022-11-14T18:08:36.574Z,16.60
2022-11-14T18:11:04.567Z,17.10
2022-11-14T18:13:32.497Z,17.40
2022-11-14T18:16:04.794Z,16.30
2022-11-14T18:18:33.248Z,16.53
2022-11-14T18:21:07.436Z,13.57
2022-11-14T18:23:36.037Z,12.20
2022-11-14T18:26:10.089Z,10.70
2022-11-14T18:28:38.056Z,11.90
2022-11-14T18:31:10.146Z,11.30
2022-11-14T18:33:38.255Z,13.03
2022-11-14T18:36:08.832Z,14.97
2022-11-14T18:38:36.770Z,14.60
2022-11-14T18:41:05.170Z,14.33
2022-11-14T18:43:34.103Z,14.10
2022-11-14T18:46:08.472Z,14.17
2022-11-14T18:48:36.618Z,13.23
2022-11-14T18:51:04.978Z,16.10
2022-11-14T18:53:33.533Z,12.93
2022-11-14T18:56:04.678Z,10.97
2022-11-14T18:58:32.802Z,26.40
2022-11-14T19:01:00.804Z,19.07
2022-11-14T19:03:31.712Z,14.00
2022-11-14T19:06:03.183Z,12.60
2022-11-14T19:08:31.104Z,12.53
2022-11-14T19:11:01.757Z,11.20
2022-11-14T19:13:29.839Z,16.87
2022-11-14T19:16:02.399Z,14.63
2022-11-14T19:18:32.036Z,13.07
2022-11-14T19:21:00.151Z,13.43
2022-11-14T19:23:28.301Z,12.57
2022-11-14T19:25:59.605Z,12.30
2022-11-14T19:28:27.651Z,16.43
2022-11-14T19:30:55.612Z,35.13
2022-11-14T19:33:23.563Z,18.67
2022-11-14T19:35:52.858Z,16.17
2022-11-14T19:38:20.801Z,40.70
2022-11-14T19:40:51.085Z,13.40
2022-11-14T19:43:19.117Z,12.07
2022-11-14T19:45:47.032Z,10.97
2022-11-14T19:48:15.055Z,11.43
2022-11-14T19:50:42.986Z,11.33
2022-11-14T19:53:12.668Z,16.77
2022-11-14T19:55:40.586Z,11.30
2022-11-14T19:58:08.506Z,11.57
2022-11-14T20:00:36.452Z,12.50
2022-11-14T20:03:04.441Z,14.80
2022-11-14T20:05:33.476Z,11.83
2022-11-14T20:08:01.417Z,10.53
2022-11-14T20:10:30.730Z,12.30
2022-11-14T20:12:58.672Z,13.37
2022-11-14T20:15:26.848Z,10.37
2022-11-14T20:17:54.796Z,11.83
2022-11-14T20:20:22.740Z,8.83
2022-11-14T20:22:50.702Z,11.90
2022-11-14T20:25:18.663Z,9.63
2022-11-14T20:27:49.109Z,15.20
2022-11-14T20:30:17.133Z,12.27
2022-11-14T20:32:45.088Z,19.53
2022-11-14T20:35:13.035Z,15.33
2022-11-14T20:37:40.962Z,15.80
2022-11-14T20:40:09.854Z,16.97
2022-11-14T20:42:37.778Z,14.40
2022-11-14T20:45:07.849Z,20.70
2022-11-14T20:47:35.767Z,17.67
2022-11-14T20:50:03.945Z,16.80
2022-11-14T20:52:32.048Z,13.50
2022-11-14T20:55:00.560Z,15.80
2022-11-14T20:57:28.490Z,12.93
2022-11-14T20:59:56.438Z,14.73
2022-11-14T21:02:25.759Z,14.70
2022-11-14T21:04:53.689Z,12.77
2022-11-14T21:07:21.669Z,11.97
2022-11-14T21:10:09.585Z,12.37
2022-11-14T21:12:37.557Z,12.90
2022-11-14T21:15:05.685Z,10.73
2022-11-14T21:17:34.998Z,13.00
2022-11-14T21:20:02.953Z,11.47
2022-11-14T21:22:30.869Z,11.20
2022-11-14T21:24:58.795Z,12.07
2022-11-14T21:27:26.764Z,12.80
2022-11-14T21:29:55.158Z,12.40
2022-11-14T21:32:23.117Z,12.67
2022-11-14T21:34:52.445Z,12.70
2022-11-14T21:37:20.468Z,13.60
2022-11-14T21:39:49.166Z,11.77
2022-11-14T21:42:18.585Z,13.20
2022-11-14T21:44:46.794Z,12.63
2022-11-14T21:47:14.707Z,11.53
2022-11-14T21:49:42.634Z,9.27
2022-11-14T21:52:11.924Z,10.23
2022-11-14T21:54:39.893Z,13.00
2022-11-14T21:57:10.271Z,12.23
2022-11-14T21:59:38.564Z,10.30
2022-11-14T22:02:23.926Z,10.50
2022-11-14T22:04:51.893Z,11.73
2022-11-14T22:07:21.312Z,10.50
2022-11-14T22:09:49.326Z,11.10
2022-11-14T22:12:17.268Z,12.07
2022-11-14T22:14:45.213Z,9.73
2022-11-14T22:17:13.116Z,10.83
2022-11-14T22:19:41.060Z,11.37
2022-11-14T22:22:09.078Z,10.00
2022-11-14T22:24:38.383Z,10.30
2022-11-14T22:27:06.329Z,10.33
2022-11-14T22:29:34.227Z,10.67
2022-11-14T22:32:02.171Z,9.67
2022-11-14T22:34:30.092Z,9.10
2022-11-14T22:36:58.038Z,9.30
2022-11-14T22:39:25.968Z,11.00
2022-11-14T22:41:55.244Z,10.00
2022-11-14T22:44:23.136Z,10.57
2022-11-14T22:46:51.050Z,11.50
2022-11-14T22:49:21.216Z,9.77
2022-11-14T22:51:49.364Z,10.60
2022-11-14T22:54:18.630Z,12.00
2022-11-14T22:56:46.529Z,10.20
2022-11-14T22:59:15.838Z,12.00
2022-11-14T23:01:43.788Z,11.20
2022-11-14T23:04:11.741Z,11.40
2022-11-14T23:06:39.691Z,10.10
2022-11-14T23:09:07.712Z,10.37
2022-11-14T23:11:35.660Z,12.37
2022-11-14T23:14:03.587Z,11.27
2022-11-14T23:16:33.846Z,11.60
2022-11-14T23:19:02.669Z,11.00
2022-11-14T23:21:31.573Z,10.33
2022-11-14T23:24:00.223Z,14.13
2022-11-14T23:26:28.553Z,10.60
2022-11-14T23:28:56.488Z,11.03
2022-11-14T23:31:24.468Z,12.30
2022-11-14T23:33:54.495Z,11.73
2022-11-14T23:36:22.445Z,10.43
2022-11-14T23:38:50.484Z,10.93
2022-11-14T23:41:19.288Z,10.90
2022-11-14T23:43:47.244Z,9.87
2022-11-14T23:46:15.221Z,11.30
2022-11-14T23:48:43.189Z,9.23
2022-11-14T23:51:13.773Z,9.90
2022-11-14T23:53:41.860Z,12.40
2022-11-14T23:56:12.294Z,11.20
2022-11-14T23:58:40.217Z,9.67
